createdAt,value
2022-12-24T00:01:10.380Z,100.00
2022-12-24T00:03:39.805Z,100.00
2022-12-24T00:06:08.540Z,100.00
2022-12-24T00:08:36.643Z,100.00
2022-12-24T00:11:04.666Z,100.00
2022-12-24T00:13:32.627Z,100.00
2022-12-24T00:16:00.844Z,100.00
2022-12-24T00:18:31.101Z,100.00
2022-12-24T00:21:02.025Z,100.00
2022-12-24T00:23:29.960Z,100.00
2022-12-24T00:25:57.766Z,100.00
2022-12-24T00:28:25.737Z,100.00
2022-12-24T00:30:53.777Z,100.00
2022-12-24T00:33:24.621Z,100.00
2022-12-24T00:35:54.081Z,100.00
2022-12-24T00:38:23.417Z,100.00
2022-12-24T00:40:51.337Z,100.00
2022-12-24T00:43:19.215Z,100.00
2022-12-24T00:45:48.242Z,100.00
2022-12-24T00:48:16.094Z,100.00
2022-12-24T00:50:44.077Z,100.00
2022-12-24T00:53:13.158Z,100.00
2022-12-24T00:55:42.457Z,100.00
2022-12-24T00:58:10.473Z,100.00
2022-12-24T01:00:38.512Z,100.00
2022-12-24T01:03:06.488Z,100.00
2022-12-24T01:05:33.719Z,100.00
2022-12-24T01:08:01.731Z,100.00
2022-12-24T01:10:29.581Z,100.00
2022-12-24T01:12:58.892Z,100.00
2022-12-24T01:15:26.754Z,100.00
2022-12-24T01:17:54.579Z,100.00
2022-12-24T01:20:22.819Z,100.00
2022-12-24T01:22:50.663Z,100.00
2022-12-24T01:25:18.644Z,100.00
2022-12-24T01:27:46.535Z,100.00
2022-12-24T01:30:16.187Z,100.00
2022-12-24T01:32:44.153Z,100.00
2022-12-24T01:35:12.717Z,100.00
2022-12-24T01:37:40.719Z,100.00
2022-12-24T01:40:29.389Z,100.00
2022-12-24T01:43:15.105Z,100.00
2022-12-24T01:45:49.262Z,100.00
2022-12-24T01:48:37.062Z,100.00
2022-12-24T01:51:10.636Z,100.00
2022-12-24T01:53:40.733Z,100.00
2022-12-24T01:56:09.495Z,100.00
2022-12-24T01:58:39.188Z,100.00
2022-12-24T02:01:08.988Z,100.00
2022-12-24T02:03:36.939Z,100.00
2022-12-24T02:06:06.199Z,100.00
2022-12-24T02:08:40.944Z,100.00
2022-12-24T02:11:17.127Z,100.00
2022-12-24T02:13:51.413Z,100.00
2022-12-24T02:16:36.408Z,100.00
2022-12-24T02:19:24.794Z,100.00
2022-12-24T02:22:03.127Z,100.00
2022-12-24T02:24:59.404Z,100.00
2022-12-24T02:27:38.754Z,100.00
2022-12-24T02:30:18.719Z,100.00
2022-12-24T02:33:02.054Z,100.00
2022-12-24T02:35:39.559Z,100.00
2022-12-24T02:38:15.707Z,100.00
2022-12-24T02:40:49.041Z,100.00
2022-12-24T02:43:23.928Z,100.00
2022-12-24T02:45:59.445Z,100.00
2022-12-24T02:48:30.194Z,100.00
2022-12-24T02:51:05.662Z,100.00
2022-12-24T02:53:34.765Z,100.00
2022-12-24T02:56:32.333Z,100.00
2022-12-24T02:59:21.337Z,100.00
2022-12-24T03:01:58.081Z,100.00
2022-12-24T03:04:40.898Z,100.00
2022-12-24T03:07:17.489Z,100.00
2022-12-24T03:09:57.280Z,100.00
2022-12-24T03:12:34.580Z,100.00
2022-12-24T03:15:04.535Z,100.00
2022-12-24T03:17:38.176Z,100.00
2022-12-24T03:20:07.762Z,100.00
2022-12-24T03:22:36.578Z,100.00
2022-12-24T03:25:05.241Z,100.00
2022-12-24T03:27:36.202Z,100.00
2022-12-24T03:30:09.663Z,100.00
2022-12-24T03:32:38.942Z,100.00
2022-12-24T03:35:07.789Z,100.00
2022-12-24T03:37:35.633Z,100.00
2022-12-24T03:40:03.561Z,100.00
2022-12-24T03:42:31.417Z,100.00
2022-12-24T03:44:59.366Z,100.00
2022-12-24T03:47:27.310Z,100.00
2022-12-24T03:49:56.575Z,100.00
2022-12-24T03:52:24.633Z,100.00
2022-12-24T03:54:52.516Z,100.00
2022-12-24T03:57:20.417Z,100.00
2022-12-24T03:59:48.224Z,100.00
2022-12-24T04:02:16.373Z,100.00
2022-12-24T04:04:44.488Z,100.00
2022-12-24T04:07:13.740Z,100.00
2022-12-24T04:09:41.971Z,100.00
2022-12-24T04:12:10.005Z,100.00
2022-12-24T04:14:37.841Z,100.00
2022-12-24T04:17:05.844Z,100.00
2022-12-24T04:19:33.889Z,100.00
2022-12-24T04:22:01.835Z,100.00
2022-12-24T04:24:31.132Z,100.00
2022-12-24T04:26:59.083Z,100.00
2022-12-24T04:29:26.978Z,100.00
2022-12-24T04:31:54.903Z,100.00
2022-12-24T04:34:22.842Z,100.00
2022-12-24T04:36:50.680Z,100.00
2022-12-24T04:39:18.607Z,100.00
2022-12-24T04:41:47.856Z,100.00
2022-12-24T04:44:15.719Z,100.00
2022-12-24T04:46:43.674Z,100.00
2022-12-24T04:49:11.871Z,100.00
2022-12-24T04:51:39.736Z,100.00
2022-12-24T04:54:07.713Z,100.00
2022-12-24T04:56:35.694Z,100.00
2022-12-24T04:59:04.963Z,100.00
2022-12-24T05:01:34.639Z,100.00
2022-12-24T05:04:02.766Z,100.00
2022-12-24T05:06:33.629Z,100.00
2022-12-24T05:09:02.114Z,100.00
2022-12-24T05:11:30.036Z,100.00
2022-12-24T05:13:58.069Z,100.00
2022-12-24T05:16:27.396Z,100.00
2022-12-24T05:18:55.690Z,100.00
2022-12-24T05:21:25.327Z,100.00
2022-12-24T05:24:11.575Z,100.00
2022-12-24T05:26:42.573Z,100.00
2022-12-24T05:29:12.494Z,100.00
2022-12-24T05:31:43.764Z,100.00
2022-12-24T05:34:13.092Z,100.00
2022-12-24T05:36:42.100Z,100.00
2022-12-24T05:39:15.944Z,100.00
2022-12-24T05:41:44.267Z,100.00
2022-12-24T05:44:12.390Z,100.00
2022-12-24T05:46:41.724Z,100.00
2022-12-24T05:49:09.900Z,100.00
2022-12-24T05:51:37.775Z,100.00
2022-12-24T05:54:06.038Z,100.00
2022-12-24T05:56:34.541Z,100.00
2022-12-24T05:59:02.422Z,100.00
2022-12-24T06:01:30.363Z,100.00
2022-12-24T06:03:59.808Z,100.00
2022-12-24T06:06:29.239Z,100.00
2022-12-24T06:08:57.380Z,100.00
2022-12-24T06:11:27.133Z,100.00
2022-12-24T06:13:55.439Z,100.00
2022-12-24T06:16:24.605Z,100.00
2022-12-24T06:18:52.945Z,100.00
2022-12-24T06:21:22.352Z,100.00
2022-12-24T06:23:50.205Z,100.00
2022-12-24T06:26:20.416Z,100.00
2022-12-24T06:28:49.924Z,100.00
2022-12-24T06:31:20.506Z,100.00
2022-12-24T06:33:49.265Z,100.00
2022-12-24T06:36:20.562Z,100.00
2022-12-24T06:38:50.080Z,100.00
2022-12-24T06:41:18.924Z,100.00
2022-12-24T06:43:47.756Z,100.00
2022-12-24T06:46:16.086Z,100.00
2022-12-24T06:48:44.964Z,100.00
2022-12-24T06:51:13.491Z,100.00
2022-12-24T06:53:41.525Z,100.00
2022-12-24T06:56:13.440Z,100.00
2022-12-24T06:58:42.141Z,100.00
2022-12-24T07:01:12.127Z,100.00
2022-12-24T07:03:40.538Z,100.00
2022-12-24T07:06:12.306Z,100.00
2022-12-24T07:08:40.187Z,100.00
2022-12-24T07:11:08.162Z,100.00
2022-12-24T07:13:37.357Z,100.00
2022-12-24T07:16:06.412Z,100.00
2022-12-24T07:18:34.668Z,100.00
2022-12-24T07:21:04.595Z,100.00
2022-12-24T07:23:32.650Z,100.00
2022-12-24T07:26:02.768Z,100.00
2022-12-24T07:28:31.313Z,100.00
2022-12-24T07:31:00.831Z,100.00
2022-12-24T07:33:28.996Z,100.00
2022-12-24T07:36:01.431Z,100.00
2022-12-24T07:38:29.829Z,100.00
2022-12-24T07:40:58.220Z,100.00
2022-12-24T07:43:26.168Z,100.00
2022-12-24T07:45:57.442Z,100.00
2022-12-24T07:48:28.198Z,100.00
2022-12-24T07:50:56.945Z,100.00
2022-12-24T07:53:26.319Z,100.00
2022-12-24T07:55:54.542Z,100.00
2022-12-24T07:58:23.309Z,100.00
2022-12-24T08:00:56.155Z,100.00
2022-12-24T08:03:24.519Z,100.00
2022-12-24T08:05:54.056Z,100.00
2022-12-24T08:08:22.573Z,100.00
2022-12-24T08:10:50.556Z,100.00
2022-12-24T08:13:18.443Z,100.00
2022-12-24T08:15:46.542Z,100.00
2022-12-24T08:18:14.489Z,100.00
2022-12-24T08:20:42.821Z,100.00
2022-12-24T08:23:12.520Z,100.00
2022-12-24T08:25:43.669Z,100.00
2022-12-24T08:28:11.511Z,100.00
2022-12-24T08:30:39.494Z,100.00
2022-12-24T08:33:07.539Z,100.00
2022-12-24T08:35:35.373Z,100.00
2022-12-24T08:38:03.322Z,100.00
2022-12-24T08:40:32.747Z,100.00
2022-12-24T08:43:02.358Z,100.00
2022-12-24T08:45:34.642Z,100.00
2022-12-24T08:48:06.559Z,100.00
2022-12-24T08:50:34.645Z,100.00
2022-12-24T08:53:02.499Z,100.00
2022-12-24T08:55:30.463Z,100.00
2022-12-24T08:58:01.469Z,100.00
2022-12-24T09:00:29.688Z,100.00
2022-12-24T09:02:58.087Z,100.00
2022-12-24T09:05:27.196Z,100.00
2022-12-24T09:07:55.048Z,100.00
2022-12-24T09:10:23.199Z,100.00
2022-12-24T09:12:52.140Z,100.00
2022-12-24T09:15:21.388Z,100.00
2022-12-24T09:17:49.411Z,100.00
2022-12-24T09:20:17.359Z,100.00
2022-12-24T09:22:45.231Z,100.00
2022-12-24T09:25:13.231Z,100.00
2022-12-24T09:27:41.239Z,100.00
2022-12-24T09:30:10.459Z,100.00
2022-12-24T09:32:39.782Z,100.00
2022-12-24T09:35:08.171Z,100.00
2022-12-24T09:37:36.118Z,100.00
2022-12-24T09:40:04.058Z,100.00
2022-12-24T09:42:45.341Z,100.00
2022-12-24T09:45:19.700Z,100.00
2022-12-24T09:47:52.281Z,100.00
2022-12-24T09:50:29.683Z,100.00
2022-12-24T09:53:04.047Z,100.00
2022-12-24T09:55:34.797Z,100.00
2022-12-24T09:58:06.234Z,100.00
2022-12-24T10:00:38.175Z,100.00
2022-12-24T10:03:16.186Z,100.00
2022-12-24T10:05:53.208Z,100.00
2022-12-24T10:08:28.577Z,100.00
2022-12-24T10:11:02.047Z,100.00
2022-12-24T10:13:43.043Z,100.00
2022-12-24T10:16:20.354Z,100.00
2022-12-24T10:18:58.739Z,100.00
2022-12-24T10:21:34.610Z,100.00
2022-12-24T10:24:08.166Z,100.00
2022-12-24T10:26:41.911Z,100.00
2022-12-24T10:29:16.683Z,100.00
2022-12-24T10:31:51.944Z,100.00
2022-12-24T10:34:24.899Z,100.00
2022-12-24T10:36:53.070Z,100.00
2022-12-24T10:39:24.092Z,100.00
2022-12-24T10:41:55.433Z,100.00
2022-12-24T10:44:27.192Z,100.00
2022-12-24T10:46:55.656Z,100.00
2022-12-24T10:49:33.008Z,100.00
2022-12-24T10:52:06.463Z,100.00
2022-12-24T10:54:39.585Z,100.00
2022-12-24T10:57:26.406Z,100.00
2022-12-24T10:59:56.122Z,100.00
2022-12-24T11:02:30.274Z,100.00
2022-12-24T11:05:03.315Z,99.61
2022-12-24T11:07:32.926Z,99.81
2022-12-24T11:10:03.289Z,99.63
2022-12-24T11:12:33.723Z,100.00
2022-12-24T11:15:04.916Z,99.52
2022-12-24T11:17:32.856Z,99.35
2022-12-24T11:20:07.115Z,99.54
2022-12-24T11:22:35.232Z,99.69
2022-12-24T11:25:07.374Z,99.56
2022-12-24T11:27:42.194Z,99.74
2022-12-24T11:30:22.359Z,99.45
2022-12-24T11:32:54.507Z,99.24
2022-12-24T11:35:26.774Z,99.49
2022-12-24T11:38:11.525Z,99.30
2022-12-24T11:40:43.631Z,99.49
2022-12-24T11:43:17.229Z,99.18
2022-12-24T11:45:50.928Z,99.15
2022-12-24T11:48:30.560Z,99.25
2022-12-24T11:51:02.341Z,99.62
2022-12-24T11:53:37.336Z,99.09
2022-12-24T11:56:15.471Z,99.43
2022-12-24T11:58:47.411Z,99.19
2022-12-24T12:01:20.480Z,99.20
2022-12-24T12:03:50.489Z,99.07
2022-12-24T12:06:28.972Z,99.94
2022-12-24T12:09:01.540Z,100.00
2022-12-24T12:11:30.555Z,100.00
2022-12-24T12:14:02.591Z,100.00
2022-12-24T12:16:56.452Z,100.00
2022-12-24T12:19:26.942Z,100.00
2022-12-24T12:21:56.145Z,100.00
2022-12-24T12:24:32.009Z,100.00
2022-12-24T12:27:08.763Z,100.00
2022-12-24T12:29:43.762Z,100.00
2022-12-24T12:32:18.088Z,100.00
2022-12-24T12:34:57.957Z,100.00
2022-12-24T12:37:32.629Z,100.00
2022-12-24T12:40:00.811Z,99.79
2022-12-24T12:42:33.999Z,99.25
2022-12-24T12:45:17.143Z,98.42
2022-12-24T12:48:01.282Z,98.10
2022-12-24T12:50:35.737Z,98.09
2022-12-24T12:53:26.096Z,97.52
2022-12-24T12:56:02.467Z,96.84
2022-12-24T12:58:34.655Z,96.35
2022-12-24T13:01:10.229Z,96.36
2022-12-24T13:04:14.267Z,96.39
2022-12-24T13:07:12.219Z,96.04
2022-12-24T13:10:02.696Z,95.84
2022-12-24T13:12:44.224Z,95.85
2022-12-24T13:15:30.846Z,95.83
2022-12-24T13:18:22.644Z,95.60
2022-12-24T13:20:52.563Z,95.27
2022-12-24T13:23:23.619Z,95.33
2022-12-24T13:25:55.209Z,95.17
2022-12-24T13:28:34.620Z,95.09
2022-12-24T13:31:29.905Z,95.51
2022-12-24T13:34:04.940Z,95.32
2022-12-24T13:37:04.576Z,95.68
2022-12-24T13:40:04.463Z,95.71
2022-12-24T13:43:10.093Z,95.69
2022-12-24T13:45:50.175Z,95.65
2022-12-24T13:48:35.867Z,95.98
2022-12-24T13:51:20.345Z,95.58
2022-12-24T13:53:49.825Z,96.28
2022-12-24T13:56:30.231Z,95.87
2022-12-24T13:59:18.246Z,96.15
2022-12-24T14:01:46.609Z,96.44
2022-12-24T14:04:24.958Z,96.52
2022-12-24T14:06:54.626Z,96.39
2022-12-24T14:09:25.651Z,97.26
2022-12-24T14:12:17.018Z,97.00
2022-12-24T14:14:46.462Z,97.37
2022-12-24T14:17:23.440Z,97.22
2022-12-24T14:19:55.039Z,97.62
2022-12-24T14:22:30.454Z,97.61
2022-12-24T14:25:00.554Z,97.58
2022-12-24T14:27:39.084Z,97.55
2022-12-24T14:30:17.224Z,97.67
2022-12-24T14:32:47.192Z,97.78
2022-12-24T14:35:18.941Z,97.62
2022-12-24T14:37:50.355Z,97.59
2022-12-24T14:40:19.993Z,97.76
2022-12-24T14:42:56.594Z,98.03
2022-12-24T14:45:32.990Z,97.81
2022-12-24T14:48:10.059Z,97.83
2022-12-24T14:50:51.030Z,97.88
2022-12-24T14:53:29.654Z,98.26
2022-12-24T14:55:57.573Z,97.99
2022-12-24T14:58:31.628Z,97.92
2022-12-24T15:01:02.790Z,98.20
2022-12-24T15:03:33.279Z,98.33
2022-12-24T15:06:05.214Z,97.98
2022-12-24T15:08:36.237Z,98.24
2022-12-24T15:11:07.042Z,98.11
2022-12-24T15:13:38.501Z,98.49
2022-12-24T15:16:11.479Z,98.37
2022-12-24T15:18:44.617Z,98.45
2022-12-24T15:21:19.043Z,98.63
2022-12-24T15:23:49.826Z,98.08
2022-12-24T15:26:23.534Z,98.25
2022-12-24T15:28:56.563Z,98.34
2022-12-24T15:31:30.747Z,98.32
2022-12-24T15:34:00.476Z,98.17
2022-12-24T15:36:31.646Z,98.19
2022-12-24T15:39:03.017Z,98.13
2022-12-24T15:41:38.181Z,98.38
2022-12-24T15:44:06.627Z,98.55
2022-12-24T15:46:35.945Z,98.23
2022-12-24T15:49:04.904Z,98.36
2022-12-24T15:51:37.830Z,98.71
2022-12-24T15:54:14.243Z,98.64
2022-12-24T15:56:45.067Z,98.99
2022-12-24T15:59:31.104Z,98.67
2022-12-24T16:02:27.421Z,98.65
2022-12-24T16:04:55.633Z,98.73
2022-12-24T16:07:47.473Z,98.72
2022-12-24T16:10:25.242Z,98.82
2022-12-24T16:12:53.655Z,98.78
2022-12-24T16:15:21.530Z,98.57
2022-12-24T16:17:53.110Z,98.73
2022-12-24T16:20:23.821Z,98.86
2022-12-24T16:22:52.471Z,98.84
2022-12-24T16:25:26.839Z,99.18
2022-12-24T16:27:58.413Z,98.97
2022-12-24T16:30:28.393Z,99.00
2022-12-24T16:32:57.625Z,99.02
2022-12-24T16:35:28.085Z,99.28
2022-12-24T16:37:56.796Z,99.46
2022-12-24T16:40:27.765Z,98.92
2022-12-24T16:43:14.904Z,99.42
2022-12-24T16:45:43.492Z,99.11
2022-12-24T16:48:20.938Z,99.18
2022-12-24T16:50:48.907Z,99.29
2022-12-24T16:53:18.087Z,99.13
2022-12-24T16:55:47.788Z,99.55
2022-12-24T16:58:17.403Z,99.09
2022-12-24T17:00:45.800Z,99.25
2022-12-24T17:03:15.685Z,99.52
2022-12-24T17:05:45.539Z,99.61
2022-12-24T17:08:13.887Z,99.24
2022-12-24T17:10:41.980Z,99.51
2022-12-24T17:13:09.936Z,99.53
2022-12-24T17:15:37.875Z,99.72
2022-12-24T17:18:06.367Z,99.44
2022-12-24T17:20:35.634Z,99.46
2022-12-24T17:23:03.847Z,99.75
2022-12-24T17:25:31.796Z,99.78
2022-12-24T17:28:00.271Z,99.84
2022-12-24T17:30:28.097Z,99.66
2022-12-24T17:32:56.036Z,99.78
2022-12-24T17:35:24.058Z,99.98
2022-12-24T17:37:53.343Z,100.00
2022-12-24T17:40:21.418Z,100.00
2022-12-24T17:42:49.428Z,100.00
2022-12-24T17:45:17.296Z,99.84
2022-12-24T17:47:45.213Z,100.00
2022-12-24T17:50:13.140Z,100.00
2022-12-24T17:52:41.275Z,100.00
2022-12-24T17:55:11.280Z,100.00
2022-12-24T17:57:39.592Z,100.00
2022-12-24T18:00:08.949Z,100.00
2022-12-24T18:02:37.357Z,100.00
2022-12-24T18:05:06.061Z,100.00
2022-12-24T18:07:33.930Z,100.00
2022-12-24T18:10:01.839Z,100.00
2022-12-24T18:12:31.240Z,100.00
2022-12-24T18:14:59.132Z,100.00
2022-12-24T18:17:27.148Z,100.00
2022-12-24T18:19:55.097Z,100.00
2022-12-24T18:22:23.033Z,100.00
2022-12-24T18:24:50.935Z,100.00
2022-12-24T18:27:19.123Z,100.00
2022-12-24T18:29:48.436Z,100.00
2022-12-24T18:32:17.110Z,100.00
2022-12-24T18:34:45.088Z,100.00
2022-12-24T18:37:12.983Z,100.00
2022-12-24T18:39:41.019Z,100.00
2022-12-24T18:42:14.319Z,100.00
2022-12-24T18:44:42.577Z,100.00
2022-12-24T18:47:12.188Z,100.00
2022-12-24T18:49:40.152Z,100.00
2022-12-24T18:52:10.557Z,100.00
2022-12-24T18:54:38.886Z,100.00
2022-12-24T18:57:07.073Z,100.00
2022-12-24T18:59:36.550Z,100.00
2022-12-24T19:02:04.625Z,100.00
2022-12-24T19:04:33.855Z,100.00
2022-12-24T19:07:01.968Z,100.00
2022-12-24T19:09:30.185Z,100.00
2022-12-24T19:11:58.019Z,100.00
2022-12-24T19:14:26.191Z,100.00
2022-12-24T19:16:54.095Z,100.00
2022-12-24T19:19:24.171Z,100.00
2022-12-24T19:21:53.766Z,100.00
2022-12-24T19:24:21.588Z,100.00
2022-12-24T19:26:49.772Z,100.00
2022-12-24T19:29:17.980Z,100.00
2022-12-24T19:31:47.485Z,100.00
2022-12-24T19:34:15.623Z,100.00
2022-12-24T19:36:43.676Z,100.00
2022-12-24T19:39:12.846Z,100.00
2022-12-24T19:41:40.717Z,100.00
2022-12-24T19:44:08.951Z,100.00
2022-12-24T19:46:38.116Z,100.00
2022-12-24T19:49:08.407Z,100.00
2022-12-24T19:51:36.798Z,100.00
2022-12-24T19:54:06.253Z,100.00
2022-12-24T19:56:36.438Z,100.00
2022-12-24T19:59:05.253Z,100.00
2022-12-24T20:01:36.250Z,100.00
2022-12-24T20:04:05.043Z,100.00
2022-12-24T20:06:35.622Z,100.00
2022-12-24T20:09:06.010Z,100.00
2022-12-24T20:11:36.059Z,100.00
2022-12-24T20:14:05.547Z,100.00
2022-12-24T20:16:34.337Z,100.00
2022-12-24T20:19:05.683Z,100.00
2022-12-24T20:21:33.943Z,100.00
2022-12-24T20:24:01.801Z,100.00
2022-12-24T20:26:30.652Z,100.00
2022-12-24T20:29:03.769Z,100.00
2022-12-24T20:31:32.218Z,100.00
2022-12-24T20:34:01.542Z,100.00
2022-12-24T20:36:30.735Z,100.00
2022-12-24T20:38:59.736Z,100.00
2022-12-24T20:41:30.245Z,100.00
2022-12-24T20:44:00.824Z,100.00
2022-12-24T20:46:31.147Z,100.00
2022-12-24T20:48:59.263Z,100.00
2022-12-24T20:51:28.846Z,100.00
2022-12-24T20:53:59.182Z,100.00
2022-12-24T20:56:27.560Z,100.00
2022-12-24T20:58:55.754Z,100.00
2022-12-24T21:01:28.567Z,100.00
2022-12-24T21:04:00.482Z,100.00
2022-12-24T21:06:28.417Z,100.00
2022-12-24T21:08:56.246Z,100.00
2022-12-24T21:11:42.207Z,100.00
2022-12-24T21:14:10.372Z,100.00
2022-12-24T21:16:41.286Z,100.00
2022-12-24T21:19:10.804Z,100.00
2022-12-24T21:21:38.791Z,100.00
2022-12-24T21:24:07.463Z,100.00
2022-12-24T21:26:36.286Z,100.00
2022-12-24T21:29:06.682Z,100.00
2022-12-24T21:31:34.701Z,100.00
2022-12-24T21:34:04.574Z,100.00
2022-12-24T21:36:32.615Z,100.00
2022-12-24T21:39:00.542Z,100.00
2022-12-24T21:41:28.496Z,100.00
2022-12-24T21:43:56.482Z,100.00
2022-12-24T21:46:27.256Z,100.00
2022-12-24T21:49:14.296Z,100.00
2022-12-24T21:51:46.788Z,100.00
2022-12-24T21:54:31.638Z,100.00
2022-12-24T21:57:19.082Z,100.00
2022-12-24T21:59:51.765Z,100.00
2022-12-24T22:02:22.711Z,100.00
2022-12-24T22:04:50.765Z,100.00
2022-12-24T22:07:41.295Z,100.00
2022-12-24T22:10:27.616Z,100.00
2022-12-24T22:12:56.034Z,100.00
2022-12-24T22:15:24.017Z,100.00
2022-12-24T22:17:51.910Z,100.00
2022-12-24T22:20:19.923Z,100.00
2022-12-24T22:22:50.123Z,100.00
2022-12-24T22:25:18.637Z,100.00
2022-12-24T22:27:47.055Z,100.00
2022-12-24T22:30:14.982Z,100.00
2022-12-24T22:32:42.885Z,100.00
2022-12-24T22:35:11.135Z,100.00
2022-12-24T22:37:39.192Z,100.00
2022-12-24T22:40:09.907Z,100.00
2022-12-24T22:42:38.365Z,100.00
2022-12-24T22:45:07.434Z,100.00
2022-12-24T22:47:35.334Z,100.00
2022-12-24T22:50:03.448Z,100.00
2022-12-24T22:52:32.945Z,100.00
2022-12-24T22:55:00.957Z,100.00
2022-12-24T22:57:30.427Z,100.00
2022-12-24T22:59:58.265Z,100.00
2022-12-24T23:02:28.810Z,100.00
2022-12-24T23:04:57.847Z,100.00
2022-12-24T23:07:25.976Z,100.00
2022-12-24T23:09:53.841Z,100.00
2022-12-24T23:12:41.917Z,100.00
2022-12-24T23:15:11.202Z,100.00
2022-12-24T23:17:39.273Z,100.00
2022-12-24T23:20:08.537Z,100.00
2022-12-24T23:22:36.386Z,100.00
2022-12-24T23:25:04.561Z,100.00
2022-12-24T23:27:32.551Z,100.00
2022-12-24T23:30:00.379Z,100.00
2022-12-24T23:32:29.683Z,100.00
2022-12-24T23:34:57.599Z,100.00
2022-12-24T23:37:31.036Z,100.00
2022-12-24T23:40:02.813Z,100.00
2022-12-24T23:42:30.720Z,100.00
2022-12-24T23:44:58.718Z,100.00
2022-12-24T23:47:26.799Z,100.00
2022-12-24T23:49:56.279Z,100.00
2022-12-24T23:52:24.243Z,100.00
2022-12-24T23:54:52.260Z,100.00
2022-12-24T23:57:20.151Z,100.00
2022-12-24T23:59:48.098Z,100.00
